
Distance (Route):
Temperature : -3.4°C
Humidity : 0%
Pressure : 0hPa| Receiver | Date | Latitude | Longitude | Direction | Speed | Altitude | Climb | Temperature | Humidity | Pressure | Voltage | Killtimer | Uptime | BKT | XDATA |
|---|---|---|---|---|---|---|---|---|---|---|---|---|---|---|---|
| DB0UT-7 | 2026-09-02 13:32:08 | 48.25512 | 3.35882 | 121° | 68km/h | 4670m | -11.0m/s | -3.4°C | 0% | 0hPa | 4.9V | 00:00:00 | 00:00:00 | 00:00:00 | |
| DB0UT-7 | 2026-09-02 13:30:55 | 48.26105 | 3.34274 | 126° | 75km/h | 5526m | -12.3m/s | -7.9°C | 0% | 0hPa | 4.9V | 00:00:00 | 00:00:00 | 00:00:00 | |
| DB0UT-7 | 2026-09-02 13:30:25 | 48.26437 | 3.33584 | 123° | 78km/h | 5900m | -12.8m/s | -10.1°C | 0% | 0hPa | 4.9V | 00:00:00 | 00:00:00 | 00:00:00 | |
| DB0UT-7 | 2026-09-02 13:29:55 | 48.26762 | 3.32819 | 122° | 84km/h | 6276m | -13.3m/s | -13.2°C | 0% | 0hPa | 4.9V | 00:00:00 | 00:00:00 | 00:00:00 | |
| DB0UT-7 | 2026-09-02 13:29:17 | 48.27138 | 3.31758 | 119° | 89km/h | 6770m | -13.5m/s | -15.0°C | 0% | 0hPa | 4.9V | 00:00:00 | 00:00:00 | 00:00:00 | |
| DB0UT-7 | 2026-09-02 13:28:40 | 48.27609 | 3.30743 | 129° | 89km/h | 7253m | -12.2m/s | -18.8°C | 0% | 0hPa | 4.9V | 00:00:00 | 00:00:00 | 00:00:00 | |
| DB0UT-7 | 2026-09-02 13:28:03 | 48.28129 | 3.29718 | 130° | 97km/h | 7709m | -12.5m/s | -22.6°C | 0% | 0hPa | 4.9V | 00:00:00 | 00:00:00 | 00:00:00 | |
| DB0UT-7 | 2026-09-02 13:27:33 | 48.28619 | 3.28910 | 132° | 104km/h | 8103m | -12.5m/s | -24.0°C | 0% | 0hPa | 4.9V | 00:00:00 | 00:00:00 | 00:00:00 | |
| DB0UT-7 | 2026-09-02 13:27:03 | 48.29115 | 3.27994 | 125° | 102km/h | 8492m | -13.5m/s | -27.1°C | 0% | 0hPa | 5.0V | 00:00:00 | 00:00:00 | 00:00:00 | |
| DB0UT-7 | 2026-09-02 13:26:32 | 48.29604 | 3.27023 | 129° | 104km/h | 8871m | -12.1m/s | -30.5°C | 0% | 0hPa | 5.0V | 00:00:00 | 00:00:00 | 00:00:00 | |
| DB0UT-7 | 2026-09-02 13:25:36 | 48.30498 | 3.25285 | 129° | 106km/h | 9591m | -13.1m/s | -36.6°C | 0% | 0hPa | 5.0V | 00:00:00 | 00:00:00 | 00:00:00 | |
| DB0UT-7 | 2026-09-02 13:24:07 | 48.32093 | 3.22771 | 134° | 113km/h | 10798m | -13.7m/s | -46.0°C | 0% | 0hPa | 5.0V | 00:00:00 | 00:00:00 | 00:00:00 | |
| DB0UT-7 | 2026-09-02 13:23:35 | 48.32684 | 3.21736 | 129° | 113km/h | 11264m | -13.2m/s | -49.4°C | 0% | 0hPa | 5.0V | 00:00:00 | 00:00:00 | 00:00:00 | |
| DB0UT-7 | 2026-09-02 13:23:05 | 48.33244 | 3.20774 | 132° | 113km/h | 11693m | -15.4m/s | -52.9°C | 0% | 0hPa | 5.0V | 00:00:00 | 00:00:00 | 00:00:00 | |
| DB0UT-7 | 2026-09-02 13:22:20 | 48.34055 | 3.19294 | 125° | 115km/h | 12392m | -15.6m/s | -57.5°C | 0% | 0hPa | 5.0V | 00:00:00 | 00:00:00 | 00:00:00 | |
| DB0UT-7 | 2026-09-02 13:21:50 | 48.34574 | 3.18240 | 131° | 99km/h | 12861m | -15.2m/s | -59.6°C | 0% | 0hPa | 5.0V | 00:00:00 | 00:00:00 | 00:00:00 | |
| DB0UT-7 | 2026-09-02 13:20:42 | 48.35725 | 3.16279 | 123° | 82km/h | 14001m | -16.9m/s | -58.8°C | 0% | 0hPa | 5.0V | 00:00:00 | 00:00:00 | 00:00:00 | |
| DB0UT-7 | 2026-09-02 13:20:08 | 48.36093 | 3.15362 | 121° | 68km/h | 14615m | -17.5m/s | -58.6°C | 0% | 0hPa | 5.0V | 00:00:00 | 00:00:00 | 00:00:00 | |
| DB0UT-7 | 2026-09-02 13:18:55 | 48.36692 | 3.13711 | 108° | 55km/h | 15927m | -18.0m/s | -57.5°C | 0% | 0hPa | 5.0V | 00:00:00 | 00:00:00 | 00:00:00 | |
| DB0UT-7 | 2026-09-02 13:18:25 | 48.36860 | 3.13141 | 111° | 55km/h | 16523m | -19.3m/s | -56.3°C | 0% | 0hPa | 5.0V | 00:00:00 | 00:00:00 | 00:00:00 | |
| DB0UT-7 | 2026-09-02 13:17:17 | 48.37137 | 3.11921 | 118° | 33km/h | 17960m | -22.9m/s | -53.2°C | 0% | 0hPa | 5.1V | 00:00:00 | 00:00:00 | 00:00:00 | |
| DB0UT-7 | 2026-09-02 13:16:45 | 48.37243 | 3.11524 | 109° | 18km/h | 18679m | -23.8m/s | -53.0°C | 0% | 0hPa | 5.1V | 00:00:00 | 00:00:00 | 00:00:00 | |
| DB0UT-7 | 2026-09-02 13:15:34 | 48.37395 | 3.10885 | 33° | 20km/h | 20408m | -23.0m/s | -52.5°C | 0% | 0hPa | 5.1V | 00:00:00 | 00:00:00 | 00:00:00 | |
| DB0UT-7 | 2026-09-02 13:15:03 | 48.37380 | 3.10680 | 120° | 9km/h | 21187m | -26.6m/s | -52.8°C | 0% | 0hPa | 5.1V | 00:00:00 | 00:00:00 | 00:00:00 | |
| DB0UT-7 | 2026-09-02 13:13:50 | 48.37477 | 3.10474 | 319° | 7km/h | 23143m | -27.5m/s | -51.3°C | 0% | 0hPa | 5.1V | 00:00:00 | 00:00:00 | 00:00:00 | |
| DB0UT-7 | 2026-09-02 13:13:20 | 48.37428 | 3.10494 | 61° | 11km/h | 23963m | -26.1m/s | -49.8°C | 0% | 0hPa | 5.1V | 00:00:00 | 00:00:00 | 00:00:00 | |
| DB0UT-7 | 2026-09-02 13:12:15 | 48.37378 | 3.10312 | 253° | 9km/h | 25959m | -30.2m/s | -47.3°C | 0% | 0hPa | 5.1V | 00:00:00 | 00:00:00 | 00:00:00 | |
| DB0UT-7 | 2026-09-02 13:11:40 | 48.37373 | 3.10410 | 289° | 13km/h | 27026m | -34.2m/s | -47.0°C | 0% | 0hPa | 5.1V | 00:00:00 | 00:00:00 | 00:00:00 | |
| DB0UT-7 | 2026-09-02 13:10:28 | 48.37247 | 3.10402 | 45° | 20km/h | 29458m | -42.6m/s | -42.2°C | 0% | 0hPa | 5.1V | 00:00:00 | 00:00:00 | 00:00:00 | |
| DB0UT-7 | 2026-09-02 13:09:55 | 48.37171 | 3.10161 | 34° | 13km/h | 30977m | -35.4m/s | -41.7°C | 0% | 0hPa | 5.1V | 00:00:00 | 00:00:00 | 00:00:00 | |
| DB0UT-7 | 2026-09-02 13:09:25 | 48.37116 | 3.10075 | 24° | 27km/h | 32085m | -45.0m/s | -41.0°C | 0% | 0hPa | 5.1V | 00:00:00 | 00:00:00 | 00:00:00 | |
| DJ2DS-15 | 2026-09-02 13:09:13 | 48.37088 | 3.10049 | 355° | 27km/h | 32575m | -37.0m/s | -38.2°C | 0% | 0hPa | 5.1V | 00:00:00 | 00:00:00 | 00:00:00 | |
| DB0UT-7 | 2026-09-02 13:08:51 | 48.36962 | 3.09999 | 360° | 26km/h | 33298m | -37.9m/s | -36.1°C | 0% | 0hPa | 5.1V | 00:00:00 | 00:00:00 | 00:00:00 | |
| DJ2DS-15 | 2026-09-02 13:08:45 | 48.36975 | 3.09960 | 126° | 29km/h | 33421m | 1.1m/s | -36.0°C | 0% | 0hPa | 5.1V | 00:00:00 | 00:00:00 | 00:00:00 | |
| DJ2DS-15 | 2026-09-02 13:08:25 | 48.36957 | 3.09880 | 155° | 37km/h | 33302m | 1.9m/s | -36.4°C | 0% | 0hPa | 5.1V | 00:00:00 | 00:00:00 | 00:00:00 | |
| DB0UT-7 | 2026-09-02 13:08:21 | 48.36945 | 3.09868 | 18° | 35km/h | 33274m | 5.8m/s | -36.7°C | 0% | 0hPa | 5.1V | 00:00:00 | 00:00:00 | 00:00:00 | |
| DJ2DS-15 | 2026-09-02 13:08:04 | 48.36907 | 3.09740 | 30° | 38km/h | 33180m | 6.1m/s | -36.8°C | 0% | 0hPa | 5.1V | 00:00:00 | 00:00:00 | 00:00:00 | |
| DB0UT-7 | 2026-09-02 13:07:51 | 48.36831 | 3.09658 | 5° | 37km/h | 33094m | 5.5m/s | -37.2°C | 0% | 0hPa | 5.1V | 00:00:00 | 00:00:00 | 00:00:00 | |
| DJ2DS-15 | 2026-09-02 13:07:44 | 48.36797 | 3.09598 | 64° | 33km/h | 33055m | 4.7m/s | -37.1°C | 0% | 0hPa | 5.1V | 00:00:00 | 00:00:00 | 00:00:00 | |
| DJ2DS-15 | 2026-09-02 13:07:24 | 48.36649 | 3.09547 | 20° | 35km/h | 32928m | 7.1m/s | -37.0°C | 0% | 0hPa | 5.1V | 00:00:00 | 00:00:00 | 00:00:00 | |
| DB0UT-7 | 2026-09-02 13:07:21 | 48.36612 | 3.09545 | 353° | 29km/h | 32907m | 6.1m/s | -37.2°C | 0% | 0hPa | 5.1V | 00:00:00 | 00:00:00 | 00:00:00 | |
| DJ2DS-15 | 2026-09-02 13:07:02 | 48.36453 | 3.09575 | 358° | 22km/h | 32789m | 8.3m/s | -37.3°C | 0% | 0hPa | 5.1V | 00:00:00 | 00:00:00 | 00:00:00 | |
| DB0UT-7 | 2026-09-02 13:06:51 | 48.36407 | 3.09603 | 169° | 24km/h | 32718m | 6.0m/s | -37.3°C | 0% | 0hPa | 5.1V | 00:00:00 | 00:00:00 | 00:00:00 | |
| DB0UT-7 | 2026-09-02 13:06:21 | 48.36418 | 3.09600 | 143° | 31km/h | 32539m | 4.5m/s | -38.3°C | 0% | 0hPa | 5.1V | 00:00:00 | 00:00:00 | 00:00:00 | |
| DO1YAY-16 | 2026-09-02 13:06:08 | 48.36429 | 3.09514 | 47° | 38km/h | 32456m | 3.7m/s | -39.3°C | 2.4% | -1.0hPa | 5.1V | 00:00:00 | 00:00:00 | 00:00:00 | |
| DB0UT-7 | 2026-09-02 13:05:51 | 48.36446 | 3.09400 | 148° | 22km/h | 32362m | 5.8m/s | -39.4°C | 0% | 0hPa | 5.1V | 00:00:00 | 00:00:00 | 00:00:00 | |
| DJ2DS-15 | 2026-09-02 13:05:22 | 48.36408 | 3.09269 | 61° | 20km/h | 32187m | 6.6m/s | -40.7°C | 0% | 0hPa | 5.1V | 00:00:00 | 00:00:00 | 00:00:00 | |
| DB0UT-7 | 2026-09-02 13:05:20 | 48.36398 | 3.09253 | 34° | 18km/h | 32177m | 4.7m/s | -40.8°C | 0% | 0hPa | 5.1V | 00:00:00 | 00:00:00 | 00:00:00 | |
| DJ2DS-15 | 2026-09-02 13:05:02 | 48.36356 | 3.09231 | 57° | 16km/h | 32070m | 4.1m/s | -41.1°C | 0% | 0hPa | 5.1V | 00:00:00 | 00:00:00 | 00:00:00 | |
| DB0UT-7 | 2026-09-02 13:04:50 | 48.36330 | 3.09231 | 181° | 15km/h | 31997m | 7.2m/s | -41.0°C | 0% | 0hPa | 5.1V | 00:00:00 | 00:00:00 | 00:00:00 | |
| DJ2DS-15 | 2026-09-02 13:04:41 | 48.36308 | 3.09238 | 207° | 15km/h | 31944m | 6.7m/s | -41.1°C | 0% | 0hPa | 5.1V | 00:00:00 | 00:00:00 | 00:00:00 | |
| DJ2DS-15 | 2026-09-02 13:04:21 | 48.36292 | 3.09214 | 309° | 16km/h | 31828m | 5.5m/s | -41.3°C | 0% | 0hPa | 5.1V | 00:00:00 | 00:00:00 | 00:00:00 | |
| DB0UT-7 | 2026-09-02 13:04:20 | 48.36291 | 3.09215 | 2° | 22km/h | 31821m | 7.2m/s | -41.3°C | 0% | 0hPa | 5.1V | 00:00:00 | 00:00:00 | 00:00:00 | |
| DJ2DS-15 | 2026-09-02 13:04:07 | 48.36263 | 3.09174 | 167° | 13km/h | 31732m | 9.5m/s | -41.5°C | 3.0% | -1.0hPa | 5.1V | 00:00:00 | 00:00:00 | 00:00:00 | |
| DJ2DS-15 | 2026-09-02 13:03:57 | 48.36253 | 3.09142 | 25° | 16km/h | 31688m | 4.1m/s | -41.3°C | 0% | 0hPa | 5.1V | 00:00:00 | 00:00:00 | 00:00:00 | |
| DB0UT-7 | 2026-09-02 13:03:47 | 48.36245 | 3.09092 | 16° | 16km/h | 31627m | 6.3m/s | -41.0°C | 0% | 0hPa | 5.1V | 00:00:00 | 00:00:00 | 00:00:00 | |
| DJ2DS-15 | 2026-09-02 13:03:28 | 48.36218 | 3.09015 | 116° | 15km/h | 31509m | 7.5m/s | -40.1°C | 0% | 0hPa | 5.1V | 00:00:00 | 00:00:00 | 00:00:00 | |
| DB0UT-7 | 2026-09-02 13:03:17 | 48.36203 | 3.08973 | 113° | 18km/h | 31440m | 6.6m/s | -39.8°C | 0% | 0hPa | 5.2V | 00:00:00 | 00:00:00 | 00:00:00 | |
| DJ2DS-15 | 2026-09-02 13:03:07 | 48.36178 | 3.08927 | 48° | 22km/h | 31377m | 8.0m/s | -39.7°C | 0% | 0hPa | 5.2V | 00:00:00 | 00:00:00 | 00:00:00 | |
| DJ2DS-15 | 2026-09-02 13:02:47 | 48.36101 | 3.08834 | 54° | 18km/h | 31252m | 5.6m/s | -39.8°C | 0% | 0hPa | 5.2V | 00:00:00 | 00:00:00 | 00:00:00 | |
| DJ2DS-15 | 2026-09-02 13:02:19 | 48.36101 | 3.08712 | 149° | 18km/h | 31071m | 8.0m/s | -40.7°C | 0% | 0hPa | 5.2V | 00:00:00 | 00:00:00 | 00:00:00 | |
| DB0UT-7 | 2026-09-02 13:02:12 | 48.36109 | 3.08724 | 59° | 16km/h | 31026m | 5.0m/s | -40.8°C | 0% | 0hPa | 5.2V | 00:00:00 | 00:00:00 | 00:00:00 | |
| DJ2DS-15 | 2026-09-02 13:01:58 | 48.36123 | 3.08693 | 121° | 16km/h | 30936m | 6.1m/s | -40.7°C | 0% | 0hPa | 5.2V | 00:00:00 | 00:00:00 | 00:00:00 | |
| DJ2DS-15 | 2026-09-02 13:01:38 | 48.36105 | 3.08568 | 83° | 26km/h | 30810m | 3.9m/s | -41.7°C | 0% | 0hPa | 5.2V | 00:00:00 | 00:00:00 | 00:00:00 | |
| DJ2DS-15 | 2026-09-02 13:01:16 | 48.36106 | 3.08396 | 90° | 26km/h | 30670m | 5.1m/s | -41.6°C | 0% | 0hPa | 5.2V | 00:00:00 | 00:00:00 | 00:00:00 | |
| DB0UT-7 | 2026-09-02 13:01:12 | 48.36094 | 3.08369 | 27° | 26km/h | 30645m | 5.6m/s | -41.7°C | 0% | 0hPa | 5.2V | 00:00:00 | 00:00:00 | 00:00:00 | |
| DJ2DS-15 | 2026-09-02 13:01:06 | 48.36080 | 3.08298 | 48° | 27km/h | 30588m | 5.8m/s | -41.8°C | 2.9% | -1.0hPa | 5.2V | 00:00:00 | 00:00:00 | 00:00:00 | |
| DB0UT-7 | 2026-09-02 13:00:42 | 48.36046 | 3.08112 | 64° | 33km/h | 30460m | 7.1m/s | -41.1°C | 0% | 0hPa | 5.2V | 00:00:00 | 00:00:00 | 00:00:00 | |
| DJ2DS-15 | 2026-09-02 13:00:36 | 48.36018 | 3.08036 | 76° | 31km/h | 30418m | 5.2m/s | -41.2°C | 0% | 0hPa | 5.2V | 00:00:00 | 00:00:00 | 00:00:00 | |
| DJ2DS-15 | 2026-09-02 13:00:31 | 48.35988 | 3.07990 | 53° | 38km/h | 30386m | 6.9m/s | -41.7°C | 2.8% | -1.0hPa | 5.2V | 00:00:00 | 00:00:00 | 00:00:00 | |
| DB0UT-7 | 2026-09-02 13:00:11 | 48.35941 | 3.07784 | 107° | 31km/h | 30275m | 4.1m/s | -41.5°C | 0% | 0hPa | 5.2V | 00:00:00 | 00:00:00 | 00:00:00 | |
| DB0UT-7 | 2026-09-02 12:59:41 | 48.35827 | 3.07504 | 31° | 29km/h | 30099m | 6.5m/s | -41.5°C | 0% | 0hPa | 5.2V | 00:00:00 | 00:00:00 | 00:00:00 | |
| DB0UT-7 | 2026-09-02 12:59:11 | 48.35677 | 3.07267 | 39° | 24km/h | 29927m | 5.7m/s | -41.2°C | 0% | 0hPa | 5.2V | 00:00:00 | 00:00:00 | 00:00:00 | |
| DJ2DS-15 | 2026-09-02 12:58:42 | 48.35543 | 3.07134 | 45° | 22km/h | 29758m | 5.8m/s | -41.6°C | 0% | 0hPa | 5.2V | 00:00:00 | 00:00:00 | 00:00:00 | |
| DB0UT-7 | 2026-09-02 12:58:41 | 48.35542 | 3.07130 | 80° | 24km/h | 29753m | 4.6m/s | -41.6°C | 0% | 0hPa | 5.2V | 00:00:00 | 00:00:00 | 00:00:00 | |
| DB0UT-7 | 2026-09-02 12:58:11 | 48.35429 | 3.06953 | 34° | 22km/h | 29574m | 5.5m/s | -41.7°C | 0% | 0hPa | 5.2V | 00:00:00 | 00:00:00 | 00:00:00 | |
| DB0UT-7 | 2026-09-02 12:57:41 | 48.35347 | 3.06761 | 76° | 16km/h | 29390m | 7.0m/s | -42.3°C | 0% | 0hPa | 5.2V | 00:00:00 | 00:00:00 | 00:00:00 | |
| DJ2DS-15 | 2026-09-02 12:57:20 | 48.35316 | 3.06638 | 57° | 18km/h | 29255m | 7.8m/s | -42.5°C | 0% | 0hPa | 5.2V | 00:00:00 | 00:00:00 | 00:00:00 | |
| DB0UT-7 | 2026-09-02 12:57:11 | 48.35293 | 3.06613 | 310° | 13km/h | 29198m | 6.5m/s | -42.5°C | 0% | 0hPa | 5.2V | 00:00:00 | 00:00:00 | 00:00:00 | |
| DB0UT-7 | 2026-09-02 12:56:41 | 48.35227 | 3.06559 | 54° | 11km/h | 29004m | 7.1m/s | -42.8°C | 0% | 0hPa | 5.2V | 00:00:00 | 00:00:00 | 00:00:00 | |
| DB0UT-7 | 2026-09-02 12:56:11 | 48.35182 | 3.06543 | 351° | 20km/h | 28816m | 4.0m/s | -43.1°C | 0% | 0hPa | 5.2V | 00:00:00 | 00:00:00 | 00:00:00 | |
| DB0UT-7 | 2026-09-02 12:55:41 | 48.35114 | 3.06670 | 271° | 18km/h | 28637m | 4.7m/s | -43.7°C | 0% | 0hPa | 5.2V | 00:00:00 | 00:00:00 | 00:00:00 | |
| DB0UT-7 | 2026-09-02 12:55:11 | 48.35126 | 3.06760 | 186° | 16km/h | 28466m | 5.8m/s | -44.1°C | 0% | 0hPa | 5.2V | 00:00:00 | 00:00:00 | 00:00:00 | |
| DB0UT-7 | 2026-09-02 12:54:41 | 48.35178 | 3.06886 | 143° | 9km/h | 28301m | 5.5m/s | -44.5°C | 0% | 0hPa | 5.2V | 00:00:00 | 00:00:00 | 00:00:00 | |
| DB0UT-7 | 2026-09-02 12:54:11 | 48.35217 | 3.06896 | 80° | 11km/h | 28135m | 5.7m/s | -44.4°C | 0% | 0hPa | 5.2V | 00:00:00 | 00:00:00 | 00:00:00 | |
| DB0UT-7 | 2026-09-02 12:53:41 | 48.35183 | 3.06882 | 21° | 15km/h | 27971m | 5.6m/s | -44.6°C | 0% | 0hPa | 5.2V | 00:00:00 | 00:00:00 | 00:00:00 | |
| DB0UT-7 | 2026-09-02 12:53:10 | 48.35119 | 3.06792 | 35° | 20km/h | 27797m | 5.4m/s | -45.6°C | 0% | 0hPa | 5.2V | 00:00:00 | 00:00:00 | 00:00:00 | |
| DB0UT-7 | 2026-09-02 12:52:40 | 48.34994 | 3.06689 | 21° | 22km/h | 27622m | 5.7m/s | -46.5°C | 0% | 0hPa | 5.2V | 00:00:00 | 00:00:00 | 00:00:00 | |
| DB0UT-7 | 2026-09-02 12:52:10 | 48.34846 | 3.06736 | 349° | 22km/h | 27437m | 6.4m/s | -46.4°C | 0% | 0hPa | 5.2V | 00:00:00 | 00:00:00 | 00:00:00 | |
| DB0UT-7 | 2026-09-02 12:51:40 | 48.34731 | 3.06851 | 268° | 13km/h | 27258m | 5.3m/s | -46.0°C | 0% | 0hPa | 5.2V | 00:00:00 | 00:00:00 | 00:00:00 | |
| DB0UT-7 | 2026-09-02 12:51:10 | 48.34717 | 3.06987 | 280° | 9km/h | 27069m | 7.1m/s | -46.0°C | 0% | 0hPa | 5.2V | 00:00:00 | 00:00:00 | 00:00:00 | |
| DB0UT-7 | 2026-09-02 12:50:40 | 48.34724 | 3.07051 | 277° | 9km/h | 26886m | 4.9m/s | -46.7°C | 0% | 0hPa | 5.2V | 00:00:00 | 00:00:00 | 00:00:00 | |
| DB0UT-7 | 2026-09-02 12:50:10 | 48.34733 | 3.07075 | 341° | 13km/h | 26709m | 4.8m/s | -47.2°C | 0% | 0hPa | 5.2V | 00:00:00 | 00:00:00 | 00:00:00 | |
| DB0UT-7 | 2026-09-02 12:49:39 | 48.34681 | 3.07100 | 319° | 18km/h | 26528m | 5.6m/s | -47.7°C | 0% | 0hPa | 5.2V | 00:00:00 | 00:00:00 | 00:00:00 | |
| DB0UT-7 | 2026-09-02 12:49:09 | 48.34631 | 3.07289 | 242° | 15km/h | 26352m | 6.8m/s | -47.6°C | 0% | 0hPa | 5.2V | 00:00:00 | 00:00:00 | 00:00:00 | |
| DB0UT-7 | 2026-09-02 12:48:39 | 48.34664 | 3.07418 | 188° | 11km/h | 26183m | 6.4m/s | -47.4°C | 0% | 0hPa | 5.3V | 00:00:00 | 00:00:00 | 00:00:00 | |
| DB0UT-7 | 2026-09-02 12:48:08 | 48.34727 | 3.07426 | 292° | 9km/h | 26007m | 4.9m/s | -46.8°C | 0% | 0hPa | 5.3V | 00:00:00 | 00:00:00 | 00:00:00 | |
| DB0UT-7 | 2026-09-02 12:47:38 | 48.34710 | 3.07442 | 278° | 11km/h | 25836m | 5.4m/s | -46.8°C | 0% | 0hPa | 5.3V | 00:00:00 | 00:00:00 | 00:00:00 | |
| DB0UT-7 | 2026-09-02 12:47:08 | 48.34641 | 3.07440 | 69° | 15km/h | 25664m | 5.4m/s | -47.4°C | 0% | 0hPa | 5.3V | 00:00:00 | 00:00:00 | 00:00:00 | |
| DB0UT-7 | 2026-09-02 12:46:38 | 48.34577 | 3.07358 | 3° | 20km/h | 25497m | 5.1m/s | -48.0°C | 0% | 0hPa | 5.3V | 00:00:00 | 00:00:00 | 00:00:00 | |
| DB0UT-7 | 2026-09-02 12:46:08 | 48.34539 | 3.07158 | 48° | 20km/h | 25326m | 5.3m/s | -48.1°C | 0% | 0hPa | 5.3V | 00:00:00 | 00:00:00 | 00:00:00 | |
| DB0UT-7 | 2026-09-02 12:45:38 | 48.34480 | 3.06973 | 12° | 11km/h | 25155m | 6.0m/s | -47.9°C | 0% | 0hPa | 5.3V | 00:00:00 | 00:00:00 | 00:00:00 | |
| DB0UT-7 | 2026-09-02 12:45:06 | 48.34418 | 3.06943 | 125° | 7km/h | 24977m | 6.2m/s | -48.6°C | 0% | 0hPa | 5.3V | 00:00:00 | 00:00:00 | 00:00:00 | |
| DB0UT-7 | 2026-09-02 12:44:35 | 48.34461 | 3.06907 | 177° | 11km/h | 24810m | 5.3m/s | -48.8°C | 0% | 0hPa | 5.3V | 00:00:00 | 00:00:00 | 00:00:00 | |
| DB0UT-7 | 2026-09-02 12:44:05 | 48.34498 | 3.06811 | 118° | 16km/h | 24647m | 5.4m/s | -48.8°C | 0% | 0hPa | 5.3V | 00:00:00 | 00:00:00 | 00:00:00 | |
| DB0UT-7 | 2026-09-02 12:43:34 | 48.34460 | 3.06654 | 66° | 18km/h | 24482m | 6.1m/s | -49.3°C | 0% | 0hPa | 5.3V | 00:00:00 | 00:00:00 | 00:00:00 | |
| DB0UT-7 | 2026-09-02 12:43:04 | 48.34399 | 3.06493 | 33° | 15km/h | 24325m | 5.5m/s | -49.5°C | 0% | 0hPa | 5.3V | 00:00:00 | 00:00:00 | 00:00:00 | |
| DB0UT-7 | 2026-09-02 12:42:34 | 48.34357 | 3.06362 | 40° | 13km/h | 24167m | 4.5m/s | -49.3°C | 0% | 0hPa | 5.3V | 00:00:00 | 00:00:00 | 00:00:00 | |
| DB0UT-7 | 2026-09-02 12:42:04 | 48.34350 | 3.06222 | 38° | 16km/h | 24005m | 3.7m/s | -50.0°C | 0% | 0hPa | 5.3V | 00:00:00 | 00:00:00 | 00:00:00 | |
| DB0UT-7 | 2026-09-02 12:41:32 | 48.34243 | 3.06201 | 326° | 15km/h | 23833m | 5.7m/s | -50.6°C | 0% | 0hPa | 5.3V | 00:00:00 | 00:00:00 | 00:00:00 | |
| DB0UT-7 | 2026-09-02 12:41:02 | 48.34179 | 3.06306 | 299° | 11km/h | 23674m | 4.4m/s | -50.4°C | 0% | 0hPa | 5.3V | 00:00:00 | 00:00:00 | 00:00:00 | |
| DB0UT-7 | 2026-09-02 12:40:32 | 48.34194 | 3.06336 | 110° | 9km/h | 23511m | 4.2m/s | -50.9°C | 0% | 0hPa | 5.3V | 00:00:00 | 00:00:00 | 00:00:00 | |
| DB0UT-7 | 2026-09-02 12:39:32 | 48.34154 | 3.06410 | 286° | 9km/h | 23198m | 4.7m/s | -51.1°C | 0% | 0hPa | 5.3V | 00:00:00 | 00:00:00 | 00:00:00 | |
| DB0UT-7 | 2026-09-02 12:39:02 | 48.34153 | 3.06427 | 197° | 7km/h | 23042m | 5.5m/s | -51.5°C | 0% | 0hPa | 5.3V | 00:00:00 | 00:00:00 | 00:00:00 | |
| DB0UT-7 | 2026-09-02 12:38:27 | 48.34154 | 3.06411 | 49° | 13km/h | 22862m | 5.1m/s | -51.6°C | 0% | 0hPa | 5.3V | 00:00:00 | 00:00:00 | 00:00:00 | |
| DB0UT-7 | 2026-09-02 12:37:57 | 48.34175 | 3.06519 | 227° | 13km/h | 22705m | 4.9m/s | -51.2°C | 0% | 0hPa | 5.3V | 00:00:00 | 00:00:00 | 00:00:00 | |
| DB0UT-7 | 2026-09-02 12:37:27 | 48.34228 | 3.06562 | 216° | 15km/h | 22552m | 5.4m/s | -51.3°C | 0% | 0hPa | 5.3V | 00:00:00 | 00:00:00 | 00:00:00 | |
| DB0UT-7 | 2026-09-02 12:36:57 | 48.34316 | 3.06440 | 131° | 9km/h | 22399m | 5.8m/s | -51.8°C | 0% | 0hPa | 5.3V | 00:00:00 | 00:00:00 | 00:00:00 | |
| DB0UT-7 | 2026-09-02 12:36:24 | 48.34358 | 3.06406 | 193° | 9km/h | 22225m | 5.2m/s | -52.0°C | 0% | 0hPa | 5.4V | 00:00:00 | 00:00:00 | 00:00:00 | |
| DB0UT-7 | 2026-09-02 12:35:54 | 48.34402 | 3.06425 | 101° | 11km/h | 22070m | 5.0m/s | -51.4°C | 0% | 0hPa | 5.4V | 00:00:00 | 00:00:00 | 00:00:00 | |
| DB0UT-7 | 2026-09-02 12:35:24 | 48.34482 | 3.06433 | 212° | 18km/h | 21915m | 4.3m/s | -50.8°C | 0% | 0hPa | 5.4V | 00:00:00 | 00:00:00 | 00:00:00 | |
| DB0UT-7 | 2026-09-02 12:34:54 | 48.34589 | 3.06364 | 146° | 22km/h | 21761m | 5.6m/s | -50.9°C | 0% | 0hPa | 5.4V | 00:00:00 | 00:00:00 | 00:00:00 | |
| DB0UT-7 | 2026-09-02 12:34:22 | 48.34636 | 3.06130 | 97° | 27km/h | 21595m | 5.6m/s | -51.7°C | 0% | 0hPa | 5.4V | 00:00:00 | 00:00:00 | 00:00:00 | |
| DB0UT-7 | 2026-09-02 12:33:52 | 48.34662 | 3.05829 | 94° | 27km/h | 21444m | 6.0m/s | -51.9°C | 0% | 0hPa | 5.4V | 00:00:00 | 00:00:00 | 00:00:00 | |
| DB0UT-7 | 2026-09-02 12:33:22 | 48.34672 | 3.05530 | 55° | 18km/h | 21295m | 5.4m/s | -51.9°C | 0% | 0hPa | 5.4V | 00:00:00 | 00:00:00 | 00:00:00 | |
| DB0UT-7 | 2026-09-02 12:32:52 | 48.34710 | 3.05338 | 107° | 22km/h | 21146m | 4.2m/s | -52.3°C | 0% | 0hPa | 5.4V | 00:00:00 | 00:00:00 | 00:00:00 | |
| DB0UT-7 | 2026-09-02 12:32:22 | 48.34668 | 3.05115 | 76° | 15km/h | 20998m | 5.5m/s | -52.2°C | 0% | 0hPa | 5.4V | 00:00:00 | 00:00:00 | 00:00:00 | |
| DB0UT-7 | 2026-09-02 12:31:52 | 48.34642 | 3.04966 | 78° | 22km/h | 20847m | 5.3m/s | -52.8°C | 0% | 0hPa | 5.4V | 00:00:00 | 00:00:00 | 00:00:00 | |
| DB0UT-7 | 2026-09-02 12:31:22 | 48.34645 | 3.04717 | 65° | 18km/h | 20699m | 5.0m/s | -53.2°C | 0% | 0hPa | 5.4V | 00:00:00 | 00:00:00 | 00:00:00 | |
| DB0UT-7 | 2026-09-02 12:30:52 | 48.34560 | 3.04551 | 58° | 11km/h | 20545m | 5.7m/s | -52.5°C | 0% | 0hPa | 5.4V | 00:00:00 | 00:00:00 | 00:00:00 | |
| DB0UT-7 | 2026-09-02 12:30:22 | 48.34497 | 3.04520 | 20° | 11km/h | 20394m | 4.9m/s | -52.0°C | 0% | 0hPa | 5.4V | 00:00:00 | 00:00:00 | 00:00:00 | |
| DB0UT-7 | 2026-09-02 12:29:51 | 48.34518 | 3.04516 | 228° | 20km/h | 20241m | 5.6m/s | -51.6°C | 0% | 0hPa | 5.4V | 00:00:00 | 00:00:00 | 00:00:00 | |
| DB0UT-7 | 2026-09-02 12:29:19 | 48.34649 | 3.04452 | 191° | 26km/h | 20082m | 5.5m/s | -51.9°C | 0% | 0hPa | 5.4V | 00:00:00 | 00:00:00 | 00:00:00 | |
| DB0UT-7 | 2026-09-02 12:28:49 | 48.34821 | 3.04330 | 140° | 38km/h | 19938m | 5.1m/s | -52.6°C | 0% | 0hPa | 5.4V | 00:00:00 | 00:00:00 | 00:00:00 | |
| DB0UT-7 | 2026-09-02 12:28:18 | 48.35002 | 3.03984 | 127° | 31km/h | 19791m | 5.2m/s | -53.0°C | 0% | 0hPa | 5.4V | 00:00:00 | 00:00:00 | 00:00:00 | |
| DB0UT-7 | 2026-09-02 12:27:48 | 48.35060 | 3.03636 | 93° | 26km/h | 19646m | 4.0m/s | -52.7°C | 0% | 0hPa | 5.4V | 00:00:00 | 00:00:00 | 00:00:00 | |
| DB0UT-7 | 2026-09-02 12:27:17 | 48.35023 | 3.03362 | 54° | 18km/h | 19506m | 4.2m/s | -51.9°C | 0% | 0hPa | 5.4V | 00:00:00 | 00:00:00 | 00:00:00 | |
| DB0UT-7 | 2026-09-02 12:26:47 | 48.34967 | 3.03182 | 60° | 22km/h | 19362m | 5.1m/s | -51.6°C | 0% | 0hPa | 5.4V | 00:00:00 | 00:00:00 | 00:00:00 | |
| DB0UT-7 | 2026-09-02 12:26:17 | 48.34951 | 3.02927 | 93° | 31km/h | 19216m | 5.2m/s | -52.4°C | 0% | 0hPa | 5.4V | 00:00:00 | 00:00:00 | 00:00:00 | |
| DB0UT-7 | 2026-09-02 12:25:47 | 48.34981 | 3.02575 | 102° | 29km/h | 19070m | 4.3m/s | -52.9°C | 0% | 0hPa | 5.4V | 00:00:00 | 00:00:00 | 00:00:00 | |
| DB0UT-7 | 2026-09-02 12:25:17 | 48.35032 | 3.02244 | 105° | 35km/h | 18925m | 5.2m/s | -52.8°C | 0% | 0hPa | 5.4V | 00:00:00 | 00:00:00 | 00:00:00 | |
| DB0UT-7 | 2026-09-02 12:24:47 | 48.35118 | 3.01901 | 105° | 37km/h | 18782m | 5.1m/s | -53.5°C | 0% | 0hPa | 5.4V | 00:00:00 | 00:00:00 | 00:00:00 | |
| DB0UT-7 | 2026-09-02 12:24:17 | 48.35170 | 3.01510 | 102° | 31km/h | 18641m | 5.3m/s | -53.7°C | 0% | 0hPa | 5.5V | 00:00:00 | 00:00:00 | 00:00:00 | |
| DB0UT-7 | 2026-09-02 12:23:47 | 48.35250 | 3.01176 | 103° | 44km/h | 18499m | 4.8m/s | -53.8°C | 0% | 0hPa | 5.5V | 00:00:00 | 00:00:00 | 00:00:00 | |
| DB0UT-7 | 2026-09-02 12:23:17 | 48.35390 | 3.00734 | 113° | 37km/h | 18361m | 5.0m/s | -54.1°C | 0% | 0hPa | 5.5V | 00:00:00 | 00:00:00 | 00:00:00 | |
| DB0UT-7 | 2026-09-02 12:22:47 | 48.35460 | 3.00344 | 107° | 33km/h | 18223m | 4.5m/s | -53.7°C | 0% | 0hPa | 5.5V | 00:00:00 | 00:00:00 | 00:00:00 | |
| DB0UT-7 | 2026-09-02 12:22:18 | 48.35581 | 3.00014 | 115° | 47km/h | 18084m | 3.9m/s | -53.5°C | 0% | 0hPa | 5.5V | 00:00:00 | 00:00:00 | 00:00:00 | |
| DB0UT-7 | 2026-09-02 12:21:47 | 48.35733 | 2.99520 | 111° | 51km/h | 17938m | 5.0m/s | -54.5°C | 0% | 0hPa | 5.5V | 00:00:00 | 00:00:00 | 00:00:00 | |
| DB0UT-7 | 2026-09-02 12:21:16 | 48.35803 | 2.98933 | 99° | 37km/h | 17792m | 4.6m/s | -55.2°C | 0% | 0hPa | 5.5V | 00:00:00 | 00:00:00 | 00:00:00 | |
| DB0UT-7 | 2026-09-02 12:20:46 | 48.35847 | 2.98533 | 123° | 35km/h | 17649m | 5.0m/s | -56.1°C | 0% | 0hPa | 5.5V | 00:00:00 | 00:00:00 | 00:00:00 | |
| DB0UT-7 | 2026-09-02 12:20:16 | 48.35964 | 2.98193 | 135° | 49km/h | 17505m | 4.0m/s | -56.1°C | 0% | 0hPa | 5.5V | 00:00:00 | 00:00:00 | 00:00:00 | |
| DB0UT-7 | 2026-09-02 12:19:46 | 48.36135 | 2.97685 | 120° | 42km/h | 17359m | 5.0m/s | -56.2°C | 0% | 0hPa | 5.5V | 00:00:00 | 00:00:00 | 00:00:00 | |
| DB0UT-7 | 2026-09-02 12:19:15 | 48.36239 | 2.97236 | 112° | 47km/h | 17223m | 3.6m/s | -55.9°C | 0% | 0hPa | 5.5V | 00:00:00 | 00:00:00 | 00:00:00 | |
| DB0UT-7 | 2026-09-02 12:18:45 | 48.36400 | 2.96764 | 109° | 55km/h | 17091m | 4.5m/s | -56.0°C | 0% | 0hPa | 5.5V | 00:00:00 | 00:00:00 | 00:00:00 | |
| DB0UT-7 | 2026-09-02 12:18:15 | 48.36492 | 2.96147 | 96° | 53km/h | 16957m | 4.1m/s | -56.4°C | 0% | 0hPa | 5.5V | 00:00:00 | 00:00:00 | 00:00:00 | |
| DB0UT-7 | 2026-09-02 12:17:46 | 48.36510 | 2.95551 | 108° | 44km/h | 16822m | 4.1m/s | -55.7°C | 0% | 0hPa | 5.5V | 00:00:00 | 00:00:00 | 00:00:00 | |
| DB0UT-7 | 2026-09-02 12:17:12 | 48.36616 | 2.95021 | 130° | 51km/h | 16670m | 4.1m/s | -55.1°C | 0% | 0hPa | 5.5V | 00:00:00 | 00:00:00 | 00:00:00 | |
| DB0UT-7 | 2026-09-02 12:16:42 | 48.36818 | 2.94518 | 123° | 53km/h | 16532m | 3.9m/s | -55.4°C | 0% | 0hPa | 5.5V | 00:00:00 | 00:00:00 | 00:00:00 | |
| DB0UT-7 | 2026-09-02 12:16:11 | 48.36967 | 2.93930 | 106° | 40km/h | 16389m | 4.3m/s | -56.3°C | 0% | 0hPa | 5.5V | 00:00:00 | 00:00:00 | 00:00:00 | |
| DB0UT-7 | 2026-09-02 12:15:41 | 48.37071 | 2.93498 | 125° | 44km/h | 16257m | 4.0m/s | -55.5°C | 0% | 0hPa | 5.5V | 00:00:00 | 00:00:00 | 00:00:00 | |
| DB0UT-7 | 2026-09-02 12:15:11 | 48.37250 | 2.93089 | 128° | 62km/h | 16123m | 5.0m/s | -55.9°C | 0% | 0hPa | 5.5V | 00:00:00 | 00:00:00 | 00:00:00 | |
| DB0UT-7 | 2026-09-02 12:14:41 | 48.37526 | 2.92503 | 122° | 80km/h | 15983m | 6.1m/s | -56.6°C | 0% | 0hPa | 5.5V | 00:00:00 | 00:00:00 | 00:00:00 | |
| DB0UT-7 | 2026-09-02 12:14:10 | 48.37775 | 2.91649 | 114° | 71km/h | 15844m | 5.1m/s | -56.8°C | 0% | 0hPa | 5.5V | 00:00:00 | 00:00:00 | 00:00:00 | |
| DB0UT-7 | 2026-09-02 12:13:40 | 48.37919 | 2.90875 | 105° | 64km/h | 15715m | 2.9m/s | -56.5°C | 0% | 0hPa | 5.5V | 00:00:00 | 00:00:00 | 00:00:00 | |
| DB0UT-7 | 2026-09-02 12:13:10 | 48.38050 | 2.90194 | 112° | 53km/h | 15582m | 4.9m/s | -56.2°C | 0% | 0hPa | 5.5V | 00:00:00 | 00:00:00 | 00:00:00 | |
| DB0UT-7 | 2026-09-02 12:12:38 | 48.38212 | 2.89577 | 113° | 58km/h | 15446m | 4.5m/s | -56.7°C | 0% | 0hPa | 5.5V | 00:00:00 | 00:00:00 | 00:00:00 | |
| DB0UT-7 | 2026-09-02 12:12:07 | 48.38443 | 2.88978 | 129° | 66km/h | 15309m | 3.8m/s | -57.1°C | 0% | 0hPa | 5.6V | 00:00:00 | 00:00:00 | 00:00:00 | |
| DB0UT-7 | 2026-09-02 12:11:37 | 48.38697 | 2.88330 | 119° | 62km/h | 15179m | 5.1m/s | -57.3°C | 0% | 0hPa | 5.6V | 00:00:00 | 00:00:00 | 00:00:00 | |
| DB0UT-7 | 2026-09-02 12:11:06 | 48.38910 | 2.87663 | 130° | 62km/h | 15044m | 4.4m/s | -57.8°C | 0% | 0hPa | 5.6V | 00:00:00 | 00:00:00 | 00:00:00 | |
| DB0UT-7 | 2026-09-02 12:10:35 | 48.39211 | 2.87125 | 136° | 78km/h | 14898m | 4.4m/s | -57.4°C | 0% | 0hPa | 5.6V | 00:00:00 | 00:00:00 | 00:00:00 | |
| DB0UT-7 | 2026-09-02 12:10:06 | 48.39623 | 2.86472 | 128° | 95km/h | 14743m | 5.5m/s | -58.7°C | 0% | 0hPa | 5.6V | 00:00:00 | 00:00:00 | 00:00:00 | |
| DB0UT-7 | 2026-09-02 12:09:35 | 48.40056 | 2.85606 | 124° | 95km/h | 14607m | 4.7m/s | -59.1°C | 0% | 0hPa | 5.6V | 00:00:00 | 00:00:00 | 00:00:00 | |
| DB0UT-7 | 2026-09-02 12:09:05 | 48.40423 | 2.84692 | 118° | 86km/h | 14475m | 4.8m/s | -58.4°C | 0% | 0hPa | 5.6V | 00:00:00 | 00:00:00 | 00:00:00 | |
| DB0UT-7 | 2026-09-02 12:08:35 | 48.40765 | 2.83866 | 131° | 84km/h | 14348m | 4.4m/s | -58.1°C | 0% | 0hPa | 5.6V | 00:00:00 | 00:00:00 | 00:00:00 | |
| DB0UT-7 | 2026-09-02 12:08:05 | 48.41112 | 2.83059 | 124° | 88km/h | 14224m | 4.1m/s | -58.5°C | 0% | 0hPa | 5.6V | 00:00:00 | 00:00:00 | 00:00:00 | |
| DB0UT-7 | 2026-09-02 12:07:35 | 48.41433 | 2.82189 | 120° | 84km/h | 14102m | 4.1m/s | -59.1°C | 0% | 0hPa | 5.6V | 00:00:00 | 00:00:00 | 00:00:00 | |
| DB0UT-7 | 2026-09-02 12:07:05 | 48.41769 | 2.81386 | 122° | 84km/h | 13980m | 4.3m/s | -59.1°C | 0% | 0hPa | 5.6V | 00:00:00 | 00:00:00 | 00:00:00 | |
| DB0UT-7 | 2026-09-02 12:06:35 | 48.42165 | 2.80651 | 132° | 88km/h | 13853m | 4.7m/s | -59.0°C | 0% | 0hPa | 5.6V | 00:00:00 | 00:00:00 | 00:00:00 | |
| DB0UT-7 | 2026-09-02 12:06:05 | 48.42593 | 2.79900 | 129° | 93km/h | 13728m | 4.8m/s | -58.4°C | 0% | 0hPa | 5.6V | 00:00:00 | 00:00:00 | 00:00:00 | |
| DB0UT-7 | 2026-09-02 12:05:35 | 48.43040 | 2.79071 | 124° | 97km/h | 13602m | 5.0m/s | -58.4°C | 0% | 0hPa | 5.6V | 00:00:00 | 00:00:00 | 00:00:00 | |
| DB0UT-7 | 2026-09-02 12:05:05 | 48.43553 | 2.78275 | 139° | 108km/h | 13471m | 4.6m/s | -58.2°C | 0% | 0hPa | 5.6V | 00:00:00 | 00:00:00 | 00:00:00 | |
| DB0UT-7 | 2026-09-02 12:04:35 | 48.44154 | 2.77455 | 138° | 117km/h | 13332m | 4.6m/s | -58.0°C | 0% | 0hPa | 5.6V | 00:00:00 | 00:00:00 | 00:00:00 | |
| DB0UT-7 | 2026-09-02 12:04:05 | 48.44759 | 2.76474 | 134° | 119km/h | 13197m | 4.0m/s | -58.1°C | 0% | 0hPa | 5.6V | 00:00:00 | 00:00:00 | 00:00:00 | |
| DB0UT-7 | 2026-09-02 12:03:33 | 48.45412 | 2.75437 | 133° | 117km/h | 13054m | 4.5m/s | -57.7°C | 0% | 0hPa | 5.6V | 00:00:00 | 00:00:00 | 00:00:00 | |
| DB0UT-7 | 2026-09-02 12:03:03 | 48.45976 | 2.74395 | 128° | 115km/h | 12921m | 4.8m/s | -57.6°C | 0% | 0hPa | 5.6V | 00:00:00 | 00:00:00 | 00:00:00 | |
| DB0UT-7 | 2026-09-02 12:02:33 | 48.46511 | 2.73370 | 133° | 117km/h | 12789m | 4.4m/s | -58.3°C | 0% | 0hPa | 5.6V | 00:00:00 | 00:00:00 | 00:00:00 | |
| DB0UT-7 | 2026-09-02 12:02:01 | 48.47096 | 2.72256 | 129° | 111km/h | 12653m | 3.7m/s | -58.6°C | 0% | 0hPa | 5.6V | 00:00:00 | 00:00:00 | 00:00:00 | |
| DB0UT-7 | 2026-09-02 12:01:31 | 48.47593 | 2.71231 | 130° | 115km/h | 12529m | 4.3m/s | -58.1°C | 0% | 0hPa | 5.6V | 00:00:00 | 00:00:00 | 00:00:00 | |
| DB0UT-7 | 2026-09-02 12:00:31 | 48.48651 | 2.69195 | 130° | 115km/h | 12285m | 3.3m/s | -56.6°C | 0% | 0hPa | 5.6V | 00:00:00 | 00:00:00 | 00:00:00 | |
| DB0UT-7 | 2026-09-02 12:00:01 | 48.49204 | 2.68184 | 128° | 115km/h | 12171m | 3.6m/s | -55.8°C | 0% | 0hPa | 5.6V | 00:00:00 | 00:00:00 | 00:00:00 | |
| DB0UT-7 | 2026-09-02 11:59:31 | 48.49773 | 2.67168 | 132° | 115km/h | 12051m | 3.8m/s | -55.4°C | 0% | 0hPa | 5.6V | 00:00:00 | 00:00:00 | 00:00:00 | |
| DB0UT-7 | 2026-09-02 11:59:01 | 48.50337 | 2.66168 | 126° | 113km/h | 11932m | 3.0m/s | -54.6°C | 0% | 0hPa | 5.6V | 00:00:00 | 00:00:00 | 00:00:00 | |
| DB0UT-7 | 2026-09-02 11:58:32 | 48.50912 | 2.65207 | 131° | 111km/h | 11814m | 4.3m/s | -54.0°C | 0% | 0hPa | 5.6V | 00:00:00 | 00:00:00 | 00:00:00 | |
| DB0UT-7 | 2026-09-02 11:58:01 | 48.51483 | 2.64273 | 131° | 120km/h | 11686m | 3.5m/s | -52.9°C | 0% | 0hPa | 5.7V | 00:00:00 | 00:00:00 | 00:00:00 | |
| DB0UT-7 | 2026-09-02 11:56:53 | 48.52764 | 2.61924 | 133° | 128km/h | 11396m | 3.9m/s | -50.9°C | 0% | 0hPa | 5.7V | 00:00:00 | 00:00:00 | 00:00:00 | |
| DB0UT-7 | 2026-09-02 11:55:12 | 48.54642 | 2.58017 | 122° | 119km/h | 10972m | 4.6m/s | -48.1°C | 0% | 0hPa | 5.7V | 00:00:00 | 00:00:00 | 00:00:00 | |
| DB0UT-7 | 2026-09-02 11:54:42 | 48.55182 | 2.56928 | 131° | 126km/h | 10833m | 5.8m/s | -47.3°C | 0% | 0hPa | 5.7V | 00:00:00 | 00:00:00 | 00:00:00 | |
| DB0UT-7 | 2026-09-02 11:54:00 | 48.56002 | 2.55392 | 133° | 122km/h | 10647m | 3.7m/s | -45.6°C | 0% | 0hPa | 5.7V | 00:00:00 | 00:00:00 | 00:00:00 | |
| DB0UT-7 | 2026-09-02 11:53:28 | 48.56624 | 2.54210 | 130° | 124km/h | 10518m | 4.3m/s | -44.6°C | 0% | 0hPa | 5.7V | 00:00:00 | 00:00:00 | 00:00:00 | |
| DB0UT-7 | 2026-09-02 11:52:58 | 48.57226 | 2.53116 | 130° | 128km/h | 10394m | 4.6m/s | -43.5°C | 0% | 0hPa | 5.7V | 00:00:00 | 00:00:00 | 00:00:00 | |
| DB0UT-7 | 2026-09-02 11:52:16 | 48.58102 | 2.51613 | 128° | 124km/h | 10218m | 3.5m/s | -41.9°C | 0% | 0hPa | 5.7V | 00:00:00 | 00:00:00 | 00:00:00 | |
| DB0UT-7 | 2026-09-02 11:51:44 | 48.58743 | 2.50453 | 131° | 126km/h | 10089m | 4.4m/s | -40.9°C | 0% | 0hPa | 5.7V | 00:00:00 | 00:00:00 | 00:00:00 | |
| DB0UT-7 | 2026-09-02 11:51:14 | 48.59375 | 2.49365 | 129° | 128km/h | 9970m | 4.0m/s | -39.9°C | 0% | 0hPa | 5.7V | 00:00:00 | 00:00:00 | 00:00:00 | |
| DB0UT-7 | 2026-09-02 11:50:44 | 48.60002 | 2.48247 | 135° | 126km/h | 9851m | 4.0m/s | -38.9°C | 0% | 0hPa | 5.7V | 00:00:00 | 00:00:00 | 00:00:00 | |
| DB0UT-7 | 2026-09-02 11:50:03 | 48.60856 | 2.46787 | 137° | 119km/h | 9644m | 6.5m/s | -37.1°C | 0% | 0hPa | 5.7V | 00:00:00 | 00:00:00 | 00:00:00 | |
| DB0UT-7 | 2026-09-02 11:49:33 | 48.61430 | 2.45754 | 130° | 108km/h | 9511m | 3.9m/s | -36.0°C | 0% | 0hPa | 5.7V | 00:00:00 | 00:00:00 | 00:00:00 | |
| DB0UT-7 | 2026-09-02 11:48:18 | 48.62772 | 2.43384 | 130° | 104km/h | 9209m | 4.2m/s | -33.6°C | 0% | 0hPa | 5.7V | 00:00:00 | 00:00:00 | 00:00:00 | |
| DB0UT-7 | 2026-09-02 11:47:48 | 48.63268 | 2.42450 | 131° | 104km/h | 9085m | 3.7m/s | -32.5°C | 0% | 0hPa | 5.7V | 00:00:00 | 00:00:00 | 00:00:00 | |
| DB0UT-7 | 2026-09-02 11:46:41 | 48.64323 | 2.40319 | 126° | 104km/h | 8818m | 4.0m/s | -30.3°C | 0% | 0hPa | 5.7V | 00:00:00 | 00:00:00 | 00:00:00 | |
| DB0UT-7 | 2026-09-02 11:46:11 | 48.64799 | 2.39363 | 128° | 106km/h | 8698m | 3.3m/s | -29.2°C | 0% | 0hPa | 5.7V | 00:00:00 | 00:00:00 | 00:00:00 | |
| DB0UT-7 | 2026-09-02 11:44:53 | 48.66031 | 2.36792 | 127° | 106km/h | 8397m | 4.6m/s | -26.8°C | 0% | 0hPa | 5.7V | 00:00:00 | 00:00:00 | 00:00:00 | |
| DB0UT-7 | 2026-09-02 11:44:23 | 48.66517 | 2.35835 | 130° | 106km/h | 8276m | 3.0m/s | -25.9°C | 0% | 0hPa | 5.7V | 00:00:00 | 00:00:00 | 00:00:00 | |
| DB0UT-7 | 2026-09-02 11:43:44 | 48.67177 | 2.34611 | 133° | 99km/h | 8119m | 3.5m/s | -25.0°C | 0% | 0hPa | 5.7V | 00:00:00 | 00:00:00 | 00:00:00 | |
| DB0UT-7 | 2026-09-02 11:43:13 | 48.67695 | 2.33744 | 131° | 91km/h | 7990m | 3.4m/s | -24.8°C | 0% | 0hPa | 5.7V | 00:00:00 | 00:00:00 | 00:00:00 | |
| DB0UT-7 | 2026-09-02 11:42:43 | 48.68146 | 2.32949 | 122° | 93km/h | 7867m | 3.5m/s | -24.0°C | 0% | 0hPa | 5.7V | 00:00:00 | 00:00:00 | 00:00:00 | |
| DB0UT-7 | 2026-09-02 11:41:31 | 48.69236 | 2.30921 | 127° | 93km/h | 7577m | 4.0m/s | -21.8°C | 0% | 0hPa | 5.7V | 00:00:00 | 00:00:00 | 00:00:00 | |
| DB0UT-7 | 2026-09-02 11:41:00 | 48.69658 | 2.30092 | 123° | 75km/h | 7433m | 4.8m/s | -20.5°C | 0% | 0hPa | 5.7V | 00:00:00 | 00:00:00 | 00:00:00 | |
| DB0UT-7 | 2026-09-02 11:39:51 | 48.70474 | 2.28317 | 121° | 78km/h | 7119m | 2.8m/s | -18.0°C | 0% | 0hPa | 5.7V | 00:00:00 | 00:00:00 | 00:00:00 | |
| DB0UT-7 | 2026-09-02 11:39:21 | 48.70782 | 2.27541 | 118° | 84km/h | 6988m | 6.1m/s | -17.5°C | 0% | 0hPa | 5.7V | 00:00:00 | 00:00:00 | 00:00:00 | |
| DB0UT-7 | 2026-09-02 11:38:07 | 48.71437 | 2.25392 | 121° | 88km/h | 6660m | 4.4m/s | -15.6°C | 0% | 0hPa | 5.8V | 00:00:00 | 00:00:00 | 00:00:00 | |
| DB0UT-7 | 2026-09-02 11:37:37 | 48.71690 | 2.24474 | 115° | 86km/h | 6533m | 4.1m/s | -15.5°C | 0% | 0hPa | 5.8V | 00:00:00 | 00:00:00 | 00:00:00 | |
| DB0UT-7 | 2026-09-02 11:36:10 | 48.72443 | 2.21737 | 122° | 100km/h | 6151m | 5.0m/s | -12.9°C | 0% | 0hPa | 5.8V | 00:00:00 | 00:00:00 | 00:00:00 |